createdAt,value
2017-12-24T00:01:52.882Z,27.83
2017-12-24T00:04:27.973Z,16.00
2017-12-24T00:07:03.288Z,26.00
2017-12-24T00:09:38.453Z,21.63
2017-12-24T00:12:13.673Z,26.70
2017-12-24T00:14:48.680Z,26.67
2017-12-24T00:17:23.809Z,23.13
2017-12-24T00:19:58.902Z,26.00
2017-12-24T00:22:33.903Z,32.40
2017-12-24T00:25:09.097Z,26.80
2017-12-24T00:27:44.288Z,26.53
2017-12-24T00:30:19.133Z,27.53
2017-12-24T00:32:54.433Z,22.80
2017-12-24T00:35:29.522Z,16.80
2017-12-24T00:38:04.589Z,16.07
2017-12-24T00:40:39.678Z,23.47
2017-12-24T00:43:14.709Z,33.90
2017-12-24T00:45:49.109Z,37.63
2017-12-24T00:48:23.989Z,20.20
2017-12-24T00:50:58.933Z,25.60
2017-12-24T00:53:34.005Z,34.23
2017-12-24T00:56:08.930Z,32.03
2017-12-24T00:58:43.950Z,30.83
2017-12-24T01:01:18.850Z,25.97
2017-12-24T01:03:54.053Z,40.03
2017-12-24T01:06:28.859Z,31.50
2017-12-24T01:09:03.697Z,31.83
2017-12-24T01:11:38.937Z,30.00
2017-12-24T01:14:14.078Z,30.07
2017-12-24T01:16:48.999Z,32.60
2017-12-24T01:19:24.301Z,25.40
2017-12-24T01:21:59.325Z,34.93
2017-12-24T01:24:34.310Z,22.60
2017-12-24T01:27:09.522Z,27.13
2017-12-24T01:29:44.517Z,24.17
2017-12-24T01:32:19.332Z,34.70
2017-12-24T01:34:54.473Z,20.30
2017-12-24T01:37:29.468Z,32.13
2017-12-24T01:40:04.125Z,24.73
2017-12-24T01:42:39.320Z,30.13
2017-12-24T01:45:14.325Z,21.67
2017-12-24T01:47:51.775Z,25.17
2017-12-24T01:50:26.485Z,17.80
2017-12-24T01:53:01.661Z,29.80
2017-12-24T01:55:36.843Z,24.33
2017-12-24T01:58:11.799Z,27.93
2017-12-24T02:00:46.440Z,24.77
2017-12-24T02:03:21.741Z,19.07
2017-12-24T02:05:56.609Z,26.70
2017-12-24T02:08:31.829Z,23.10
2017-12-24T02:11:06.388Z,26.80
2017-12-24T02:13:41.256Z,33.27
2017-12-24T02:16:16.434Z,29.27
2017-12-24T02:18:51.644Z,29.33
2017-12-24T02:21:26.617Z,18.23
2017-12-24T02:24:01.620Z,24.97
2017-12-24T02:26:36.540Z,25.47
2017-12-24T02:29:11.895Z,25.50
2017-12-24T02:31:46.772Z,25.03
2017-12-24T02:34:21.805Z,25.37
2017-12-24T02:36:56.910Z,19.30
2017-12-24T02:39:31.799Z,20.43
2017-12-24T02:42:06.797Z,24.17
2017-12-24T02:44:41.802Z,26.03
2017-12-24T02:47:16.992Z,19.23
2017-12-24T02:49:51.921Z,24.70
2017-12-24T02:52:26.623Z,23.30
2017-12-24T02:55:01.114Z,21.67
2017-12-24T02:57:36.017Z,20.17
2017-12-24T03:00:11.209Z,24.53
2017-12-24T03:02:46.223Z,24.90
2017-12-24T03:05:21.203Z,30.23
2017-12-24T03:07:56.396Z,22.27
2017-12-24T03:10:31.662Z,22.83
2017-12-24T03:13:06.653Z,34.63
2017-12-24T03:15:41.565Z,21.80
2017-12-24T03:18:16.382Z,33.00
2017-12-24T03:20:51.497Z,31.83
2017-12-24T03:23:26.412Z,28.03
2017-12-24T03:26:01.657Z,29.10
2017-12-24T03:28:36.528Z,28.90
2017-12-24T03:31:13.386Z,18.37
2017-12-24T03:33:47.985Z,28.50
2017-12-24T03:36:23.116Z,25.40
2017-12-24T03:38:57.905Z,24.63
2017-12-24T03:41:32.924Z,27.03
2017-12-24T03:44:08.066Z,39.40
2017-12-24T03:46:43.166Z,50.00
2017-12-24T03:49:18.236Z,32.50
2017-12-24T03:51:52.641Z,41.77
2017-12-24T03:54:27.592Z,25.40
2017-12-24T03:57:02.491Z,43.10
2017-12-24T03:59:37.424Z,26.70
2017-12-24T04:02:12.305Z,30.90
2017-12-24T04:04:47.308Z,26.37
2017-12-24T04:07:22.192Z,24.53
2017-12-24T04:09:57.289Z,23.07
2017-12-24T04:12:32.264Z,17.43
2017-12-24T04:15:07.298Z,23.90
2017-12-24T04:17:42.381Z,26.77
2017-12-24T04:20:17.281Z,23.93
2017-12-24T04:22:52.310Z,21.77
2017-12-24T04:25:27.380Z,25.47
2017-12-24T04:28:02.293Z,21.13
2017-12-24T04:30:37.292Z,27.53
2017-12-24T04:33:12.392Z,21.50
2017-12-24T04:35:47.275Z,15.03
2017-12-24T04:38:22.244Z,22.37
2017-12-24T04:40:57.185Z,24.87
2017-12-24T04:43:32.175Z,21.50
2017-12-24T04:46:07.193Z,20.63
2017-12-24T04:48:42.413Z,21.93
2017-12-24T04:51:17.473Z,27.43
2017-12-24T04:53:52.795Z,26.20
2017-12-24T04:56:27.692Z,18.10
2017-12-24T04:59:02.882Z,17.77
2017-12-24T05:01:37.879Z,26.17
2017-12-24T05:04:12.984Z,27.00
2017-12-24T05:06:47.973Z,27.07
2017-12-24T05:09:22.733Z,23.80
2017-12-24T05:11:57.955Z,28.47
2017-12-24T05:14:32.964Z,25.30
2017-12-24T05:17:07.932Z,24.43
2017-12-24T05:19:43.006Z,29.77
2017-12-24T05:22:17.828Z,33.27
2017-12-24T05:24:53.002Z,18.20
2017-12-24T05:27:27.905Z,27.00
2017-12-24T05:30:03.105Z,28.90
2017-12-24T05:32:38.375Z,33.33
2017-12-24T05:35:13.355Z,26.60
2017-12-24T05:37:48.443Z,28.13
2017-12-24T05:40:23.520Z,30.03
2017-12-24T05:42:58.622Z,23.27
2017-12-24T05:45:33.530Z,21.13
2017-12-24T05:48:08.557Z,28.37
2017-12-24T05:50:43.455Z,32.57
2017-12-24T05:53:18.241Z,24.77
2017-12-24T05:55:53.341Z,28.43
2017-12-24T05:58:28.236Z,22.73
2017-12-24T06:01:03.278Z,29.33
2017-12-24T06:03:38.400Z,29.27
2017-12-24T06:06:13.496Z,34.30
2017-12-24T06:08:48.485Z,25.83
2017-12-24T06:11:23.579Z,33.33
2017-12-24T06:13:58.454Z,30.57
2017-12-24T06:16:33.621Z,32.57
2017-12-24T06:19:08.785Z,26.17
2017-12-24T06:21:43.701Z,25.73
2017-12-24T06:24:18.707Z,36.13
2017-12-24T06:26:53.781Z,29.13
2017-12-24T06:29:28.804Z,36.87
2017-12-24T06:32:03.705Z,29.23
2017-12-24T06:34:38.889Z,34.53
2017-12-24T06:37:13.926Z,37.57
2017-12-24T06:39:48.921Z,25.13
2017-12-24T06:42:24.133Z,30.17
2017-12-24T06:44:59.232Z,35.43
2017-12-24T06:47:34.414Z,28.17
2017-12-24T06:50:09.612Z,33.93
2017-12-24T06:52:44.522Z,33.37
2017-12-24T06:55:19.509Z,36.80
2017-12-24T06:57:54.695Z,33.20
2017-12-24T07:00:29.081Z,34.60
2017-12-24T07:03:03.462Z,32.00
2017-12-24T07:05:38.568Z,29.93
2017-12-24T07:08:13.665Z,36.03
2017-12-24T07:10:48.755Z,30.50
2017-12-24T07:13:23.904Z,33.77
2017-12-24T07:15:58.908Z,31.57
2017-12-24T07:18:34.013Z,30.10
2017-12-24T07:21:09.088Z,31.43
2017-12-24T07:23:44.096Z,24.57
2017-12-24T07:26:19.157Z,33.63
2017-12-24T07:28:54.200Z,24.87
2017-12-24T07:31:29.348Z,34.80
2017-12-24T07:34:04.423Z,31.83
2017-12-24T07:36:39.676Z,25.40
2017-12-24T07:39:14.689Z,24.67
2017-12-24T07:41:49.612Z,22.67
2017-12-24T07:44:24.463Z,17.07
2017-12-24T07:46:59.247Z,26.20
2017-12-24T07:49:34.128Z,27.17
2017-12-24T07:52:09.350Z,21.00
2017-12-24T07:54:44.661Z,21.07
2017-12-24T07:57:19.861Z,17.90
2017-12-24T07:59:55.076Z,25.57
2017-12-24T08:02:30.003Z,21.70
2017-12-24T08:05:06.254Z,17.00
2017-12-24T08:07:41.346Z,25.87
2017-12-24T08:10:16.350Z,19.47
2017-12-24T08:12:51.329Z,22.40
2017-12-24T08:15:26.544Z,27.93
2017-12-24T08:18:01.632Z,24.70
2017-12-24T08:20:36.808Z,16.87
2017-12-24T08:23:11.784Z,31.67
2017-12-24T08:25:46.660Z,31.47
2017-12-24T08:28:21.680Z,27.63
2017-12-24T08:30:56.500Z,33.20
2017-12-24T08:33:31.609Z,30.13
2017-12-24T08:36:06.725Z,29.60
2017-12-24T08:38:41.940Z,31.27
2017-12-24T08:41:16.877Z,31.43
2017-12-24T08:43:52.182Z,24.30
2017-12-24T08:46:27.257Z,28.60
2017-12-24T08:49:02.163Z,20.43
2017-12-24T08:51:37.217Z,20.93
2017-12-24T08:54:12.766Z,29.10
2017-12-24T08:56:47.272Z,22.00
2017-12-24T08:59:22.401Z,16.23
2017-12-24T09:01:57.599Z,14.07
2017-12-24T09:04:32.925Z,20.73
2017-12-24T09:07:07.885Z,19.77
2017-12-24T09:09:42.812Z,15.30
2017-12-24T09:12:17.902Z,19.10
2017-12-24T09:14:52.992Z,16.73
2017-12-24T09:17:28.093Z,19.73
2017-12-24T09:20:03.099Z,21.23
2017-12-24T09:22:38.138Z,23.93
2017-12-24T09:25:13.071Z,20.53
2017-12-24T09:27:47.824Z,18.53
2017-12-24T09:30:22.830Z,17.90
2017-12-24T09:32:57.741Z,19.57
2017-12-24T09:35:32.927Z,23.23
2017-12-24T09:38:07.896Z,23.60
2017-12-24T09:40:43.501Z,21.80
2017-12-24T09:43:18.001Z,24.80
2017-12-24T09:45:52.841Z,27.53
2017-12-24T09:48:27.909Z,26.43
2017-12-24T09:51:03.213Z,23.47
2017-12-24T09:53:38.354Z,21.17
2017-12-24T09:56:13.557Z,20.87
2017-12-24T09:58:48.730Z,24.67
2017-12-24T10:01:23.719Z,25.70
2017-12-24T10:03:58.633Z,17.13
2017-12-24T10:06:33.841Z,23.90
2017-12-24T10:09:09.051Z,18.87
2017-12-24T10:11:44.117Z,24.97
2017-12-24T10:14:19.104Z,21.20
2017-12-24T10:16:54.388Z,23.53
2017-12-24T10:19:29.557Z,24.67
2017-12-24T10:22:04.336Z,20.83
2017-12-24T10:24:39.646Z,19.47
2017-12-24T10:27:14.340Z,20.40
2017-12-24T10:29:49.521Z,16.90
2017-12-24T10:32:24.588Z,21.13
2017-12-24T10:34:59.719Z,19.30
2017-12-24T10:37:34.809Z,22.70
2017-12-24T10:40:09.786Z,15.50
2017-12-24T10:42:44.897Z,17.73
2017-12-24T10:45:20.212Z,16.53
2017-12-24T10:47:55.133Z,14.27
2017-12-24T10:50:30.274Z,18.20
2017-12-24T10:53:05.314Z,22.80
2017-12-24T10:55:40.219Z,17.80
2017-12-24T10:58:15.094Z,21.57
2017-12-24T11:00:50.196Z,20.47
2017-12-24T11:03:25.269Z,13.30
2017-12-24T11:06:00.340Z,19.27
2017-12-24T11:08:35.477Z,15.50
2017-12-24T11:11:10.677Z,11.90
2017-12-24T11:13:45.557Z,12.00
2017-12-24T11:16:20.684Z,23.30
2017-12-24T11:18:55.742Z,19.43
2017-12-24T11:21:30.840Z,25.63
2017-12-24T11:24:05.773Z,30.93
2017-12-24T11:26:40.205Z,20.17
2017-12-24T11:29:15.211Z,23.43
2017-12-24T11:31:50.031Z,27.00
2017-12-24T11:34:24.959Z,27.40
2017-12-24T11:37:00.023Z,26.80
2017-12-24T11:39:34.918Z,24.93
2017-12-24T11:42:09.951Z,15.17
2017-12-24T11:44:45.065Z,20.70
2017-12-24T11:47:20.103Z,22.40
2017-12-24T11:49:55.296Z,16.67
2017-12-24T11:52:29.702Z,18.90
2017-12-24T11:55:04.393Z,19.67
2017-12-24T11:57:39.677Z,23.67
2017-12-24T12:00:14.348Z,20.53
2017-12-24T12:02:49.752Z,22.90
2017-12-24T12:05:24.837Z,14.93
2017-12-24T12:07:59.839Z,12.23
2017-12-24T12:10:34.925Z,22.33
2017-12-24T12:13:10.257Z,18.93
2017-12-24T12:15:44.757Z,19.20
2017-12-24T12:18:19.947Z,21.07
2017-12-24T12:20:54.873Z,14.90
2017-12-24T12:23:30.153Z,17.90
2017-12-24T12:26:04.864Z,16.37
2017-12-24T12:28:39.944Z,14.90
2017-12-24T12:31:14.943Z,11.07
2017-12-24T12:33:50.131Z,15.87
2017-12-24T12:36:25.120Z,19.17
2017-12-24T12:39:00.353Z,22.80
2017-12-24T12:41:35.248Z,14.17
2017-12-24T12:44:10.165Z,18.87
2017-12-24T12:46:45.393Z,21.10
2017-12-24T12:49:20.473Z,24.07
2017-12-24T12:51:55.375Z,21.30
2017-12-24T12:54:30.381Z,21.33
2017-12-24T12:57:05.525Z,22.93
2017-12-24T12:59:40.521Z,17.33
2017-12-24T13:02:15.585Z,19.83
2017-12-24T13:04:50.770Z,18.93
2017-12-24T13:07:25.616Z,17.00
2017-12-24T13:10:00.692Z,15.27
2017-12-24T13:12:35.797Z,16.00
2017-12-24T13:15:10.645Z,16.60
2017-12-24T13:17:45.716Z,14.43
2017-12-24T13:20:20.818Z,18.53
2017-12-24T13:22:55.832Z,11.93
2017-12-24T13:25:30.939Z,9.90
2017-12-24T13:28:05.805Z,13.23
2017-12-24T13:30:40.701Z,10.40
2017-12-24T13:33:15.598Z,9.43
2017-12-24T13:35:50.659Z,10.10
2017-12-24T13:38:25.746Z,8.87
2017-12-24T13:41:00.751Z,9.47
2017-12-24T13:43:35.565Z,10.73
2017-12-24T13:46:10.549Z,9.87
2017-12-24T13:48:45.423Z,9.43
2017-12-24T13:51:20.695Z,5.90
2017-12-24T13:53:55.690Z,6.23
2017-12-24T13:56:30.722Z,9.00
2017-12-24T13:59:05.655Z,8.30
2017-12-24T14:01:40.671Z,5.67
2017-12-24T14:04:15.458Z,8.50
2017-12-24T14:06:50.340Z,6.30
2017-12-24T14:09:25.392Z,9.63
2017-12-24T14:12:00.572Z,5.60
2017-12-24T14:14:35.457Z,9.90
2017-12-24T14:17:10.565Z,10.13
2017-12-24T14:19:45.292Z,10.80
2017-12-24T14:22:20.389Z,9.30
2017-12-24T14:24:55.379Z,5.93
2017-12-24T14:27:30.344Z,5.20
2017-12-24T14:30:05.029Z,8.13
2017-12-24T14:32:40.300Z,8.20
2017-12-24T14:35:15.265Z,10.17
2017-12-24T14:37:50.189Z,10.80
2017-12-24T14:40:25.351Z,10.33
2017-12-24T14:43:00.220Z,9.47
2017-12-24T14:45:35.158Z,10.83
2017-12-24T14:48:10.130Z,10.40
2017-12-24T14:50:45.116Z,13.20
2017-12-24T14:53:19.894Z,15.77
2017-12-24T14:55:55.179Z,13.37
2017-12-24T14:58:29.653Z,14.60
2017-12-24T15:01:04.773Z,16.50
2017-12-24T15:03:39.866Z,15.50
2017-12-24T15:06:15.040Z,15.20
2017-12-24T15:08:50.001Z,16.17
2017-12-24T15:11:24.986Z,12.77
2017-12-24T15:13:59.877Z,14.20
2017-12-24T15:16:34.876Z,14.70
2017-12-24T15:19:09.778Z,20.83
2017-12-24T15:21:44.785Z,24.57
2017-12-24T15:24:19.892Z,18.63
2017-12-24T15:29:52.432Z,17.87
2017-12-24T15:32:27.325Z,20.80
2017-12-24T15:35:02.529Z,21.37
2017-12-24T15:37:37.424Z,19.90
2017-12-24T15:40:12.540Z,21.57
2017-12-24T15:42:47.561Z,18.50
2017-12-24T15:45:22.388Z,18.00
2017-12-24T15:47:57.302Z,21.47
2017-12-24T15:50:32.295Z,20.40
2017-12-24T15:53:07.068Z,21.07
2017-12-24T15:55:42.184Z,23.57
2017-12-24T15:58:17.334Z,14.60
2017-12-24T16:00:52.317Z,20.57
2017-12-24T16:03:27.431Z,15.00
2017-12-24T16:06:02.485Z,19.90
2017-12-24T16:08:37.573Z,16.00
2017-12-24T16:11:12.914Z,17.43
2017-12-24T16:13:48.053Z,20.27
2017-12-24T16:16:23.211Z,19.83
2017-12-24T16:18:58.213Z,19.03
2017-12-24T16:21:33.406Z,19.73
2017-12-24T16:24:08.408Z,25.97
2017-12-24T16:26:43.407Z,29.83
2017-12-24T16:29:18.441Z,23.50
2017-12-24T16:31:53.440Z,18.50
2017-12-24T16:34:28.430Z,16.17
2017-12-24T16:37:03.417Z,20.30
2017-12-24T16:39:38.301Z,18.90
2017-12-24T16:42:13.226Z,21.60
2017-12-24T16:44:48.162Z,19.60
2017-12-24T16:47:23.048Z,18.13
2017-12-24T16:49:58.107Z,16.77
2017-12-24T16:52:32.983Z,13.63
2017-12-24T16:55:07.992Z,19.97
2017-12-24T16:57:42.772Z,17.37
2017-12-24T17:00:17.952Z,18.00
2017-12-24T17:02:53.224Z,15.23
2017-12-24T17:05:28.358Z,17.43
2017-12-24T17:08:03.528Z,18.83
2017-12-24T17:10:38.541Z,16.70
2017-12-24T17:13:13.412Z,21.53
2017-12-24T17:15:48.596Z,18.10
2017-12-24T17:18:23.718Z,20.83
2017-12-24T17:20:58.604Z,17.90
2017-12-24T17:23:33.797Z,18.80
2017-12-24T17:26:08.899Z,19.80
2017-12-24T17:28:44.129Z,17.20
2017-12-24T17:31:19.145Z,21.03
2017-12-24T17:33:54.361Z,19.83
2017-12-24T17:36:29.287Z,24.50
2017-12-24T17:39:03.637Z,32.07
2017-12-24T17:41:38.956Z,22.90
2017-12-24T17:44:13.977Z,18.80
2017-12-24T17:46:49.008Z,25.33
2017-12-24T17:49:24.007Z,21.30
2017-12-24T17:51:59.124Z,26.60
2017-12-24T17:54:34.304Z,20.47
2017-12-24T17:57:09.413Z,21.00
2017-12-24T17:59:44.396Z,20.03
2017-12-24T18:02:19.284Z,22.20
2017-12-24T18:04:54.371Z,20.17
2017-12-24T18:07:29.259Z,16.70
2017-12-24T18:10:03.902Z,20.30
2017-12-24T18:12:38.703Z,20.80
2017-12-24T18:15:13.959Z,21.97
2017-12-24T18:17:48.966Z,20.47
2017-12-24T18:20:23.996Z,17.53
2017-12-24T18:22:59.216Z,18.00
2017-12-24T18:25:34.226Z,22.10
2017-12-24T18:28:09.301Z,18.73
2017-12-24T18:30:44.247Z,21.27
2017-12-24T18:33:19.458Z,19.03
2017-12-24T18:35:54.383Z,19.57
2017-12-24T18:38:29.290Z,17.50
2017-12-24T18:41:04.169Z,17.60
2017-12-24T18:43:39.356Z,16.33
2017-12-24T18:46:14.461Z,15.57
2017-12-24T18:48:49.549Z,17.80
2017-12-24T18:51:24.633Z,17.37
2017-12-24T18:53:59.610Z,19.90
2017-12-24T18:56:34.833Z,15.47
2017-12-24T18:59:09.736Z,13.87
2017-12-24T19:01:44.629Z,19.23
2017-12-24T19:04:19.721Z,11.53
2017-12-24T19:06:54.676Z,18.30
2017-12-24T19:09:29.576Z,18.07
2017-12-24T19:12:04.776Z,17.07
2017-12-24T19:14:39.560Z,17.13
2017-12-24T19:17:14.645Z,20.10
2017-12-24T19:19:49.844Z,16.00
2017-12-24T19:22:24.778Z,17.73
2017-12-24T19:24:59.776Z,19.57
2017-12-24T19:27:34.849Z,18.73
2017-12-24T19:30:09.844Z,17.07
2017-12-24T19:32:44.860Z,16.93
2017-12-24T19:35:19.862Z,16.37
2017-12-24T19:37:54.977Z,18.73
2017-12-24T19:40:29.861Z,13.27
2017-12-24T19:43:04.869Z,20.40
2017-12-24T19:45:39.936Z,18.87
2017-12-24T19:48:14.712Z,17.30
2017-12-24T19:50:50.020Z,19.83
2017-12-24T19:53:25.302Z,18.80
2017-12-24T19:56:00.360Z,21.67
2017-12-24T19:58:35.357Z,16.93
2017-12-24T20:01:10.595Z,21.70
2017-12-24T20:03:45.714Z,11.90
2017-12-24T20:06:20.701Z,18.67
2017-12-24T20:08:55.601Z,11.23
2017-12-24T20:11:30.497Z,14.20
2017-12-24T20:14:05.487Z,18.73
2017-12-24T20:16:40.589Z,19.33
2017-12-24T20:19:15.704Z,17.60
2017-12-24T20:21:50.814Z,17.47
2017-12-24T20:24:25.732Z,16.83
2017-12-24T20:27:00.882Z,15.73
2017-12-24T20:29:35.764Z,20.00
2017-12-24T20:32:10.158Z,16.50
2017-12-24T20:34:44.949Z,12.93
2017-12-24T20:37:20.262Z,16.13
2017-12-24T20:39:55.291Z,15.27
2017-12-24T20:42:30.282Z,17.53
2017-12-24T20:45:05.412Z,17.00
2017-12-24T20:47:40.633Z,14.80
2017-12-24T20:50:15.553Z,12.57
2017-12-24T20:52:50.762Z,16.27
2017-12-24T20:55:25.872Z,13.53
2017-12-24T20:58:00.860Z,14.00
2017-12-24T21:00:35.749Z,11.00
2017-12-24T21:03:10.516Z,14.43
2017-12-24T21:05:45.508Z,12.23
2017-12-24T21:08:20.509Z,13.20
2017-12-24T21:10:55.423Z,16.03
2017-12-24T21:13:30.437Z,11.40
2017-12-24T21:16:05.510Z,8.10
2017-12-24T21:18:40.545Z,9.00
2017-12-24T21:21:15.552Z,8.53
2017-12-24T21:23:50.439Z,10.17
2017-12-24T21:26:25.217Z,10.90
2017-12-24T21:29:00.298Z,10.10
2017-12-24T21:31:35.394Z,9.73
2017-12-24T21:34:10.557Z,9.57
2017-12-24T21:36:45.550Z,9.70
2017-12-24T21:39:20.604Z,8.17
2017-12-24T21:41:55.486Z,8.10
2017-12-24T21:44:30.508Z,6.60
2017-12-24T21:47:05.416Z,8.30
2017-12-24T21:49:40.325Z,9.33
2017-12-24T21:52:15.192Z,9.43
2017-12-24T21:54:50.210Z,9.73
2017-12-24T21:57:25.181Z,8.67
2017-12-24T22:00:00.166Z,8.63
2017-12-24T22:02:35.061Z,7.93
2017-12-24T22:05:10.050Z,8.17
2017-12-24T22:07:44.937Z,7.40
2017-12-24T22:10:20.096Z,9.17
2017-12-24T22:12:55.072Z,12.83
2017-12-24T22:15:30.052Z,7.50
2017-12-24T22:18:05.130Z,10.60
2017-12-24T22:20:40.219Z,10.17
2017-12-24T22:23:15.385Z,9.50
2017-12-24T22:25:50.288Z,11.67
2017-12-24T22:28:25.369Z,7.83
2017-12-24T22:31:00.468Z,10.13
2017-12-24T22:33:35.348Z,7.77
2017-12-24T22:36:10.466Z,9.50
2017-12-24T22:38:45.536Z,12.37
2017-12-24T22:41:20.329Z,8.10
2017-12-24T22:43:55.408Z,9.07
2017-12-24T22:46:30.400Z,12.87
2017-12-24T22:49:05.591Z,12.00
2017-12-24T22:51:40.649Z,10.87
2017-12-24T22:54:15.624Z,11.20
2017-12-24T22:56:50.815Z,9.97
2017-12-24T22:59:25.915Z,10.63
2017-12-24T23:02:00.926Z,11.60
2017-12-24T23:04:36.007Z,10.23
2017-12-24T23:07:11.105Z,13.13
2017-12-24T23:09:46.292Z,11.73
2017-12-24T23:12:21.375Z,11.20
2017-12-24T23:14:56.383Z,12.83
2017-12-24T23:17:31.536Z,8.20
2017-12-24T23:20:06.247Z,8.90
2017-12-24T23:22:41.212Z,11.67
2017-12-24T23:25:15.640Z,11.67
2017-12-24T23:27:50.848Z,8.00
2017-12-24T23:30:25.716Z,9.93
2017-12-24T23:33:00.689Z,11.03
2017-12-24T23:35:35.464Z,6.57
2017-12-24T23:38:10.665Z,12.13
2017-12-24T23:40:45.627Z,11.10
2017-12-24T23:43:20.788Z,7.63
2017-12-24T23:45:55.658Z,11.30
2017-12-24T23:48:30.621Z,9.37
2017-12-24T23:51:05.387Z,9.43
2017-12-24T23:53:40.354Z,8.00
2017-12-24T23:56:15.423Z,8.73
2017-12-24T23:58:50.418Z,7.07
